Time;durP1;ratioP1;P1;durP2;ratioP2;P2;SDS_P1;SDS_P2;PMS_P1;PMS_P2;Temp;Humidity;BMP_temperature;BMP_pressure;BME280_temperature;BME280_humidity;BME280_pressure;Samples;Min_cycle;Max_cycle;Signal;HPM_P1;HPM_P2
2024/02/02 00:00:05;;;;;;;15.63;10.67;;;7.70;75.00;;;;;;5051838;28;20209;-69
2024/02/02 00:02:37;;;;;;;11.17;10.07;;;7.70;75.10;;;;;;5050919;28;20237;-69
2024/02/02 00:05:03;;;;;;;12.23;10.80;;;7.70;75.00;;;;;;5051466;28;20251;-69
2024/02/02 00:07:30;;;;;;;11.43;10.00;;;7.70;75.00;;;;;;5046756;28;20216;-68
2024/02/02 00:09:57;;;;;;;11.50;10.30;;;7.70;75.00;;;;;;5054309;28;20264;-67
2024/02/02 00:12:24;;;;;;;11.20;10.10;;;7.70;75.00;;;;;;5053954;28;20730;-67
2024/02/02 00:14:51;;;;;;;11.13;9.93;;;7.70;75.00;;;;;;5054536;28;20251;-67
2024/02/02 00:17:18;;;;;;;11.57;10.37;;;7.70;75.70;;;;;;5054058;28;20669;-66
2024/02/02 00:19:44;;;;;;;12.40;11.07;;;7.60;74.80;;;;;;5051276;28;20244;-67
2024/02/02 00:22:11;;;;;;;12.10;10.47;;;7.50;75.00;;;;;;5054381;28;20355;-67
2024/02/02 00:24:38;;;;;;;12.70;11.43;;;7.60;75.20;;;;;;5049394;28;20213;-66
2024/02/02 00:27:04;;;;;;;13.63;12.23;;;7.60;74.20;;;;;;5062366;28;20213;-67
2024/02/02 00:29:31;;;;;;;12.63;11.43;;;7.70;74.00;;;;;;5060021;28;20213;-67
2024/02/02 00:31:58;;;;;;;12.37;11.07;;;7.60;73.20;;;;;;5054582;28;20275;-67
2024/02/02 00:34:24;;;;;;;14.40;12.90;;;7.50;74.30;;;;;;5043562;28;20634;-67
2024/02/02 00:36:51;;;;;;;14.20;12.77;;;7.50;74.80;;;;;;5042895;28;20307;-67
2024/02/02 00:39:17;;;;;;;14.23;12.83;;;7.50;73.80;;;;;;5052024;28;20734;-67
2024/02/02 00:41:43;;;;;;;12.37;11.20;;;7.50;73.80;;;;;;5049329;28;20256;-67
2024/02/02 00:44:09;;;;;;;13.90;12.47;;;7.50;74.20;;;;;;5052168;28;20671;-68
2024/02/02 00:46:36;;;;;;;14.17;12.80;;;7.50;73.60;;;;;;5054317;28;20327;-67
2024/02/02 00:49:03;;;;;;;13.53;12.13;;;7.50;73.60;;;;;;5051028;28;20259;-67
2024/02/02 00:51:30;;;;;;;13.67;12.17;;;7.50;73.40;;;;;;5054589;28;20257;-67
2024/02/02 00:53:56;;;;;;;13.47;12.20;;;7.60;72.80;;;;;;5051645;28;20207;-67
2024/02/02 00:56:24;;;;;;;13.60;12.20;;;7.60;72.70;;;;;;5053536;28;20278;-68
2024/02/02 00:58:51;;;;;;;14.27;12.63;;;7.50;72.90;;;;;;5045009;28;20217;-67
2024/02/02 01:01:17;;;;;;;13.73;12.37;;;7.50;72.80;;;;;;5052431;28;20226;-68
2024/02/02 01:03:44;;;;;;;16.23;13.30;;;7.40;73.80;;;;;;5053422;28;20625;-66
2024/02/02 01:06:11;;;;;;;14.30;12.80;;;7.40;73.80;;;;;;5061290;28;20208;-67
2024/02/02 01:08:37;;;;;;;13.80;12.40;;;7.40;74.00;;;;;;5051409;28;20208;-68
2024/02/02 01:11:04;;;;;;;13.93;12.50;;;7.40;73.90;;;;;;5052097;28;20722;-68
2024/02/02 01:13:30;;;;;;;14.53;12.50;;;7.30;74.00;;;;;;5053037;28;20212;-66
2024/02/02 01:15:57;;;;;;;14.43;12.93;;;7.40;73.50;;;;;;5047759;28;20251;-67
2024/02/02 01:18:24;;;;;;;14.53;13.07;;;7.30;73.50;;;;;;5052458;28;20220;-68
2024/02/02 01:20:50;;;;;;;14.47;12.97;;;7.20;74.10;;;;;;5053089;28;20209;-68
2024/02/02 01:23:17;;;;;;;14.07;12.67;;;7.20;74.60;;;;;;5053098;28;20213;-68
2024/02/02 01:25:44;;;;;;;14.63;12.37;;;7.20;74.60;;;;;;5050695;28;20213;-68
2024/02/02 01:28:10;;;;;;;15.33;12.87;;;7.20;73.90;;;;;;5053146;28;20213;-68
2024/02/02 01:30:37;;;;;;;14.27;12.77;;;7.20;73.00;;;;;;5053073;28;20212;-68
2024/02/02 01:33:04;;;;;;;13.50;12.13;;;7.30;72.70;;;;;;5048446;28;20229;-68
2024/02/02 01:35:31;;;;;;;13.87;12.37;;;7.10;72.90;;;;;;5049149;28;20229;-68
2024/02/02 01:37:58;;;;;;;13.93;12.53;;;7.10;73.20;;;;;;5052230;28;20206;-68
2024/02/02 01:40:24;;;;;;;13.40;12.00;;;7.00;73.60;;;;;;5052417;28;20243;-67
2024/02/02 01:42:51;;;;;;;14.47;12.97;;;7.10;73.60;;;;;;5046924;28;20256;-67
2024/02/02 01:45:18;;;;;;;14.47;13.07;;;7.10;72.80;;;;;;5052175;28;20216;-67
2024/02/02 01:47:45;;;;;;;14.83;12.43;;;7.10;73.00;;;;;;5048862;28;20209;-67
2024/02/02 01:50:12;;;;;;;12.70;11.40;;;7.10;73.00;;;;;;5052209;28;20671;-67
2024/02/02 01:52:39;;;;;;;16.17;12.87;;;7.10;72.60;;;;;;5042195;28;20237;-67
2024/02/02 01:55:05;;;;;;;13.10;11.47;;;7.10;71.60;;;;;;5050865;28;20259;-66
2024/02/02 01:57:32;;;;;;;12.77;10.90;;;7.10;70.80;;;;;;5045042;28;20317;-67
2024/02/02 01:59:59;;;;;;;14.90;11.87;;;7.00;70.50;;;;;;5041368;28;20213;-67
2024/02/02 02:02:26;;;;;;;11.93;10.73;;;6.90;70.40;;;;;;5052526;28;20229;-67
2024/02/02 02:04:53;;;;;;;12.07;10.87;;;6.90;70.20;;;;;;5059958;28;20200;-67
2024/02/02 02:07:19;;;;;;;13.37;11.40;;;6.90;70.10;;;;;;5052763;28;20211;-66
2024/02/02 02:09:46;;;;;;;12.37;11.07;;;6.90;70.50;;;;;;5044788;28;20212;-67
2024/02/02 02:12:12;;;;;;;12.27;10.83;;;6.90;70.70;;;;;;5049061;28;20283;-67
2024/02/02 02:14:39;;;;;;;12.27;11.07;;;6.90;70.60;;;;;;5051740;28;20248;-67
2024/02/02 02:17:06;;;;;;;12.53;11.33;;;6.90;71.30;;;;;;5049262;28;20229;-67
2024/02/02 02:19:34;;;;;;;13.07;11.63;;;6.90;70.80;;;;;;5052378;28;20273;-67
2024/02/02 02:22:01;;;;;;;13.13;11.73;;;6.80;70.90;;;;;;5051343;28;20727;-68
2024/02/02 02:24:28;;;;;;;12.43;10.90;;;6.70;70.50;;;;;;5051791;28;20215;-67
2024/02/02 02:26:55;;;;;;;11.70;10.50;;;6.70;70.30;;;;;;5041726;28;20267;-67
2024/02/02 02:29:21;;;;;;;12.33;11.13;;;6.70;70.10;;;;;;5048833;28;20208;-67
2024/02/02 02:31:48;;;;;;;12.43;10.80;;;6.70;70.10;;;;;;5051697;28;20311;-67
2024/02/02 02:34:15;;;;;;;12.57;11.27;;;6.50;70.30;;;;;;5055182;28;20251;-66
2024/02/02 02:36:41;;;;;;;13.10;11.70;;;6.60;70.60;;;;;;5044047;28;20236;-66
2024/02/02 02:39:11;;;;;;;12.83;11.23;;;6.60;70.40;;;;;;5050903;28;20637;-66
2024/02/02 02:41:37;;;;;;;12.57;11.23;;;6.60;70.60;;;;;;5049102;28;20260;-66
2024/02/02 02:44:04;;;;;;;12.70;11.30;;;6.60;70.00;;;;;;5044978;28;20208;-68
2024/02/02 02:46:31;;;;;;;13.17;11.40;;;6.60;70.10;;;;;;5037261;28;20208;-67
2024/02/02 02:48:57;;;;;;;13.33;11.93;;;6.70;70.10;;;;;;5049870;28;20288;-68
2024/02/02 02:51:24;;;;;;;12.70;11.40;;;6.60;69.90;;;;;;5048287;28;20718;-67
2024/02/02 02:53:50;;;;;;;11.40;10.10;;;6.50;69.00;;;;;;5052034;28;20640;-67
2024/02/02 02:56:17;;;;;;;11.43;9.33;;;6.60;68.10;;;;;;5051149;28;20320;-67
2024/02/02 02:58:43;;;;;;;15.57;10.43;;;6.50;67.50;;;;;;5051589;28;20212;-67
2024/02/02 03:01:10;;;;;;;11.30;10.10;;;6.50;67.30;;;;;;5048143;28;20289;-67
2024/02/02 03:03:36;;;;;;;12.00;10.07;;;6.50;67.60;;;;;;5043403;28;20209;-67
2024/02/02 03:06:03;;;;;;;11.63;9.77;;;6.50;67.50;;;;;;5050853;28;20216;-68
2024/02/02 03:08:30;;;;;;;12.90;10.03;;;6.50;67.40;;;;;;5047597;28;20209;-67
2024/02/02 03:10:57;;;;;;;14.43;9.87;;;6.70;66.40;;;;;;5051242;28;20675;-68
2024/02/02 03:13:24;;;;;;;10.40;9.00;;;6.60;66.00;;;;;;5051391;28;20212;-67
2024/02/02 03:15:51;;;;;;;9.43;8.47;;;6.50;66.20;;;;;;5051168;28;20209;-68
2024/02/02 03:18:17;;;;;;;11.80;9.03;;;6.50;66.10;;;;;;5051567;28;20215;-67
2024/02/02 03:20:44;;;;;;;10.63;9.53;;;6.50;66.20;;;;;;5041544;28;20675;-68
2024/02/02 03:23:10;;;;;;;10.27;9.37;;;6.50;66.40;;;;;;5047060;28;20216;-68
2024/02/02 03:25:37;;;;;;;12.17;9.83;;;6.50;66.10;;;;;;5047492;28;20209;-68
2024/02/02 03:28:04;;;;;;;12.23;10.37;;;6.50;66.60;;;;;;5051309;28;20231;-67
2024/02/02 03:30:30;;;;;;;15.63;10.30;;;6.50;67.10;;;;;;5051078;28;20208;-68
2024/02/02 03:32:57;;;;;;;12.53;10.87;;;6.30;67.70;;;;;;5049716;28;20229;-68
2024/02/02 03:35:24;;;;;;;12.20;10.13;;;6.30;68.20;;;;;;5052377;28;20238;-68
2024/02/02 03:37:50;;;;;;;12.50;10.83;;;6.40;67.90;;;;;;5043110;28;20260;-68
2024/02/02 03:40:17;;;;;;;12.20;10.87;;;6.40;68.50;;;;;;5048722;28;20204;-68
2024/02/02 03:42:43;;;;;;;15.20;11.03;;;6.40;68.90;;;;;;5047353;28;20232;-68
2024/02/02 03:45:10;;;;;;;12.17;10.70;;;6.40;68.90;;;;;;5054937;28;20204;-68
2024/02/02 03:47:37;;;;;;;15.50;12.00;;;6.40;69.40;;;;;;5052438;28;20208;-68
2024/02/02 03:50:03;;;;;;;15.77;11.83;;;6.40;69.10;;;;;;5053083;28;20213;-68
2024/02/02 03:52:30;;;;;;;12.47;11.07;;;6.40;69.40;;;;;;5054749;28;20268;-67
2024/02/02 03:54:56;;;;;;;15.03;12.17;;;6.40;69.40;;;;;;5050707;28;20204;-68
2024/02/02 03:57:23;;;;;;;15.43;12.70;;;6.40;69.40;;;;;;5044294;28;20703;-68
2024/02/02 03:59:49;;;;;;;13.10;11.40;;;6.40;69.40;;;;;;5051102;28;20675;-68
2024/02/02 04:02:16;;;;;;;15.17;12.63;;;6.30;70.70;;;;;;5054473;28;20233;-68
2024/02/02 04:04:44;;;;;;;13.43;12.03;;;6.30;70.60;;;;;;5054315;28;20201;-69
2024/02/02 04:07:10;;;;;;;14.23;11.73;;;6.40;70.80;;;;;;5053068;28;20205;-69
2024/02/02 04:09:38;;;;;;;13.90;12.43;;;6.40;70.00;;;;;;5054299;28;20212;-68
2024/02/02 04:12:04;;;;;;;16.03;12.67;;;6.30;70.90;;;;;;5054251;28;20294;-68
2024/02/02 04:14:31;;;;;;;15.23;12.43;;;6.30;71.20;;;;;;5049199;28;20212;-68
2024/02/02 04:16:58;;;;;;;14.93;11.97;;;6.40;71.60;;;;;;5052100;28;20236;-68
2024/02/02 04:19:24;;;;;;;14.97;12.27;;;6.30;71.50;;;;;;5060321;28;20200;-69
2024/02/02 04:21:51;;;;;;;15.20;13.47;;;6.40;71.40;;;;;;5056267;28;20243;-69
2024/02/02 04:24:17;;;;;;;13.77;12.33;;;6.40;71.90;;;;;;5054613;28;20220;-68
2024/02/02 04:26:44;;;;;;;15.03;12.10;;;6.30;72.10;;;;;;5054442;28;20287;-68
2024/02/02 04:29:11;;;;;;;14.60;12.90;;;6.40;72.40;;;;;;5054129;28;20209;-68
2024/02/02 04:31:37;;;;;;;14.40;12.90;;;6.50;71.50;;;;;;5052167;28;20223;-68
2024/02/02 04:34:04;;;;;;;15.50;12.20;;;6.50;71.30;;;;;;5052329;28;20212;-69
2024/02/02 04:36:30;;;;;;;14.97;12.37;;;6.50;71.50;;;;;;5053961;28;20267;-68
2024/02/02 04:38:57;;;;;;;14.07;12.67;;;6.60;71.30;;;;;;5053948;28;20629;-68
2024/02/02 04:41:23;;;;;;;14.13;12.63;;;6.50;71.40;;;;;;5053639;28;20279;-68
2024/02/02 04:43:50;;;;;;;13.30;11.90;;;6.60;72.10;;;;;;5053532;28;20645;-68
2024/02/02 04:46:17;;;;;;;15.97;12.73;;;6.50;72.00;;;;;;5053826;28;20282;-68
2024/02/02 04:48:43;;;;;;;13.77;12.03;;;6.60;71.80;;;;;;5040131;28;20209;-68
2024/02/02 04:51:10;;;;;;;14.80;13.20;;;6.50;72.30;;;;;;5047752;28;20291;-69
2024/02/02 04:53:36;;;;;;;13.77;12.43;;;6.50;72.50;;;;;;5054662;28;20271;-68
2024/02/02 04:56:03;;;;;;;14.47;12.50;;;6.50;72.90;;;;;;5056535;28;20195;-68
2024/02/02 04:58:30;;;;;;;15.57;12.73;;;6.70;72.60;;;;;;5046442;28;20259;-68
2024/02/02 05:00:56;;;;;;;15.27;13.57;;;6.60;72.70;;;;;;5051860;28;20248;-68
2024/02/02 05:03:23;;;;;;;13.97;12.53;;;6.60;73.00;;;;;;5053148;28;20267;-69
2024/02/02 05:05:50;;;;;;;14.13;12.63;;;6.70;72.70;;;;;;5052967;28;20201;-68
2024/02/02 05:08:16;;;;;;;14.37;12.87;;;6.60;72.90;;;;;;5050199;28;20208;-69
2024/02/02 05:10:43;;;;;;;15.20;12.57;;;6.70;72.90;;;;;;5053566;28;20204;-69
2024/02/02 05:13:09;;;;;;;14.73;12.17;;;6.70;72.80;;;;;;5053120;28;20221;-68
2024/02/02 05:15:36;;;;;;;15.97;12.83;;;6.60;72.90;;;;;;5039801;28;20257;-68
2024/02/02 05:18:03;;;;;;;15.30;13.17;;;6.70;72.60;;;;;;5053752;28;20232;-68
2024/02/02 05:20:31;;;;;;;16.83;13.20;;;6.80;72.20;;;;;;5046902;28;20244;-69
2024/02/02 05:22:57;;;;;;;15.37;13.10;;;6.80;72.10;;;;;;5053931;28;20234;-68
2024/02/02 05:25:24;;;;;;;14.37;12.87;;;6.80;72.60;;;;;;5047962;28;20204;-68
2024/02/02 05:27:50;;;;;;;13.60;12.13;;;6.70;72.50;;;;;;5046046;28;20259;-68
2024/02/02 05:30:17;;;;;;;14.77;12.63;;;6.80;71.80;;;;;;5042537;28;20634;-68
2024/02/02 05:32:44;;;;;;;14.10;12.47;;;6.80;71.60;;;;;;5045133;28;20225;-69
2024/02/02 05:35:11;;;;;;;14.67;12.63;;;6.80;72.00;;;;;;5050502;28;20209;-69
2024/02/02 05:37:37;;;;;;;13.73;12.33;;;6.80;71.70;;;;;;5043186;28;20284;-68
2024/02/02 05:40:04;;;;;;;15.67;11.80;;;6.80;72.50;;;;;;5050057;28;20228;-68
2024/02/02 05:42:30;;;;;;;12.03;10.83;;;6.80;72.00;;;;;;5050721;28;20286;-68
2024/02/02 05:44:57;;;;;;;14.10;12.37;;;6.90;72.20;;;;;;5052433;28;20704;-68
2024/02/02 05:47:23;;;;;;;12.93;11.03;;;6.80;71.70;;;;;;5051659;28;20637;-67
2024/02/02 05:49:50;;;;;;;13.13;11.90;;;6.90;71.20;;;;;;5052183;28;20216;-68
2024/02/02 05:52:17;;;;;;;13.33;11.93;;;6.90;71.20;;;;;;5051615;28;20237;-68
2024/02/02 05:54:43;;;;;;;14.40;11.93;;;6.80;71.70;;;;;;5040564;28;20656;-68
2024/02/02 05:57:10;;;;;;;13.47;12.17;;;6.80;71.80;;;;;;5043701;28;20235;-68
2024/02/02 05:59:36;;;;;;;14.73;11.57;;;6.80;72.00;;;;;;5047987;28;20266;-68
2024/02/02 06:02:03;;;;;;;12.20;10.73;;;6.80;71.80;;;;;;5042698;28;20583;-68
2024/02/02 06:04:30;;;;;;;12.03;10.83;;;6.90;71.60;;;;;;5051953;28;20616;-68
2024/02/02 06:06:56;;;;;;;12.67;11.30;;;6.80;71.10;;;;;;5051060;28;20328;-68
2024/02/02 06:09:23;;;;;;;13.03;11.60;;;6.60;71.80;;;;;;5051819;28;20263;-68
2024/02/02 06:11:49;;;;;;;11.90;10.47;;;6.70;71.80;;;;;;5043258;28;20275;-68
2024/02/02 06:14:16;;;;;;;14.63;11.17;;;6.80;71.50;;;;;;5050398;28;20246;-68
2024/02/02 06:16:43;;;;;;;12.33;11.10;;;6.80;71.20;;;;;;5046408;28;20671;-68
2024/02/02 06:19:09;;;;;;;10.77;9.77;;;6.80;71.30;;;;;;5051241;28;20206;-68
2024/02/02 06:21:36;;;;;;;11.27;10.17;;;6.70;71.10;;;;;;5052459;28;20225;-68
2024/02/02 06:24:02;;;;;;;11.67;10.33;;;6.90;71.20;;;;;;5060794;28;20273;-68
2024/02/02 06:26:29;;;;;;;12.27;10.97;;;6.90;70.40;;;;;;5051891;28;20217;-69
2024/02/02 06:28:56;;;;;;;10.93;9.77;;;6.80;70.50;;;;;;5051507;28;20231;-68
2024/02/02 06:31:24;;;;;;;10.57;9.47;;;6.90;69.80;;;;;;5043935;28;20282;-68
2024/02/02 06:33:50;;;;;;;11.57;10.37;;;6.90;69.80;;;;;;5048011;28;20219;-69
2024/02/02 06:36:17;;;;;;;10.70;9.70;;;6.90;69.80;;;;;;5052008;28;20213;-68
2024/02/02 06:38:43;;;;;;;10.57;9.47;;;6.80;69.80;;;;;;5051711;28;20228;-68
2024/02/02 06:41:11;;;;;;;10.77;9.67;;;6.80;69.80;;;;;;5051438;28;20228;-68
2024/02/02 06:43:37;;;;;;;10.57;9.57;;;6.80;69.80;;;;;;5052261;28;20231;-68
2024/02/02 06:46:04;;;;;;;10.00;8.93;;;6.80;70.10;;;;;;5057848;28;20216;-68
2024/02/02 06:48:30;;;;;;;11.60;9.70;;;6.80;69.80;;;;;;5044161;28;20220;-68
2024/02/02 06:50:57;;;;;;;9.80;8.67;;;6.70;69.70;;;;;;5053950;28;20204;-68
2024/02/02 06:53:23;;;;;;;10.20;9.10;;;6.80;69.90;;;;;;5050222;28;20217;-68
2024/02/02 06:55:50;;;;;;;9.97;8.93;;;6.80;69.80;;;;;;5049534;28;20654;-68
2024/02/02 06:58:17;;;;;;;10.47;9.20;;;6.80;69.50;;;;;;5040728;28;20228;-68
2024/02/02 07:00:43;;;;;;;10.67;9.27;;;6.70;69.70;;;;;;5035603;28;20702;-68
2024/02/02 07:03:10;;;;;;;12.10;9.87;;;6.80;69.50;;;;;;5050900;28;20205;-68
2024/02/02 07:05:36;;;;;;;10.77;9.37;;;6.70;69.20;;;;;;5048623;28;20250;-68
2024/02/02 07:08:03;;;;;;;10.67;9.50;;;6.80;69.80;;;;;;5049203;28;20212;-68
2024/02/02 07:10:29;;;;;;;10.00;8.77;;;6.90;68.70;;;;;;5054780;28;20504;-68
2024/02/02 07:12:56;;;;;;;10.07;8.93;;;6.80;69.10;;;;;;5055081;28;20224;-68
2024/02/02 07:15:23;;;;;;;10.23;9.23;;;6.90;68.30;;;;;;5047788;28;20294;-68
2024/02/02 07:17:49;;;;;;;8.87;8.07;;;6.90;68.10;;;;;;5049220;28;20606;-68
2024/02/02 07:20:17;;;;;;;8.90;8.00;;;6.90;68.00;;;;;;5062637;28;20612;-68
2024/02/02 07:22:43;;;;;;;10.27;8.67;;;6.90;68.40;;;;;;5054482;28;20268;-68
2024/02/02 07:25:10;;;;;;;9.10;8.03;;;6.90;68.10;;;;;;5053626;28;20213;-68
2024/02/02 07:27:37;;;;;;;8.37;7.57;;;6.90;67.40;;;;;;5059961;28;20212;-69
2024/02/02 07:30:04;;;;;;;8.53;7.73;;;6.90;67.70;;;;;;5055940;28;20258;-69
2024/02/02 07:32:30;;;;;;;10.43;8.10;;;6.90;67.70;;;;;;5046802;28;20221;-69
2024/02/02 07:34:57;;;;;;;8.73;7.80;;;6.80;67.70;;;;;;5051210;28;20254;-68
2024/02/02 07:37:23;;;;;;;9.07;8.17;;;7.00;67.10;;;;;;5062606;28;20260;-69
2024/02/02 07:39:50;;;;;;;8.97;8.07;;;6.90;67.40;;;;;;5054218;28;20271;-68
2024/02/02 07:42:17;;;;;;;8.57;7.57;;;6.90;67.00;;;;;;5054910;28;20651;-69
2024/02/02 07:44:43;;;;;;;8.53;7.57;;;6.90;67.40;;;;;;5056341;28;20202;-68
2024/02/02 07:47:10;;;;;;;8.40;7.53;;;7.00;66.60;;;;;;5050522;28;20725;-68
2024/02/02 07:49:36;;;;;;;8.40;7.50;;;7.10;66.10;;;;;;5056580;28;20211;-69
2024/02/02 07:52:03;;;;;;;8.40;7.60;;;7.10;66.40;;;;;;5028407;28;20247;-68
2024/02/02 07:54:29;;;;;;;9.07;7.80;;;7.10;66.40;;;;;;5050607;28;20220;-68
2024/02/02 07:56:56;;;;;;;8.37;7.57;;;7.00;67.00;;;;;;5055329;28;20272;-68
2024/02/02 07:59:23;;;;;;;7.80;6.77;;;7.10;66.10;;;;;;5048778;28;20212;-69
2024/02/02 08:01:50;;;;;;;8.33;7.53;;;7.10;66.40;;;;;;5056841;28;20606;-68
2024/02/02 08:04:17;;;;;;;8.37;7.60;;;7.10;65.90;;;;;;5055370;28;20656;-68
2024/02/02 08:06:43;;;;;;;8.47;7.57;;;7.10;66.00;;;;;;5056554;28;20620;-69
2024/02/02 08:09:10;;;;;;;8.07;6.90;;;7.10;65.90;;;;;;5057773;28;20251;-69
2024/02/02 08:11:36;;;;;;;7.77;6.97;;;7.30;65.60;;;;;;5048775;28;20858;-69
2024/02/02 08:14:03;;;;;;;7.47;6.67;;;7.10;65.20;;;;;;5035117;28;20213;-69
2024/02/02 08:16:30;;;;;;;7.70;6.90;;;7.20;65.50;;;;;;5032068;28;20683;-69
2024/02/02 08:18:57;;;;;;;8.50;7.70;;;7.20;64.90;;;;;;5040020;28;20235;-69
2024/02/02 08:21:25;;;;;;;7.30;6.60;;;7.20;65.10;;;;;;5038198;28;20232;-69
2024/02/02 08:23:52;;;;;;;7.73;7.00;;;7.30;64.80;;;;;;5040706;28;20209;-68
2024/02/02 08:26:18;;;;;;;7.43;6.70;;;7.40;65.30;;;;;;5049145;28;20216;-68
2024/02/02 08:28:45;;;;;;;7.57;6.80;;;7.50;64.60;;;;;;5045701;28;20201;-67
2024/02/02 08:31:11;;;;;;;7.50;6.20;;;7.50;63.40;;;;;;5042365;28;20779;-67
2024/02/02 08:33:40;;;;;;;7.93;6.90;;;7.40;62.70;;;;;;5044807;28;20263;-66
2024/02/02 08:36:07;;;;;;;7.57;6.73;;;7.50;62.70;;;;;;5048138;28;20232;-67
2024/02/02 08:38:33;;;;;;;7.43;6.50;;;7.60;62.90;;;;;;5042963;28;20324;-67
2024/02/02 08:41:02;;;;;;;7.10;6.40;;;7.60;62.40;;;;;;5037199;28;20855;-66
2024/02/02 08:43:28;;;;;;;7.10;6.40;;;7.50;62.10;;;;;;5043338;28;20213;-67
2024/02/02 08:45:54;;;;;;;7.33;6.63;;;7.50;62.40;;;;;;5039590;28;20255;-67
2024/02/02 08:48:20;;;;;;;7.07;6.47;;;7.40;62.80;;;;;;5044047;28;20201;-68
2024/02/02 08:50:47;;;;;;;7.03;6.30;;;7.50;62.50;;;;;;5038826;28;20221;-68
2024/02/02 08:53:14;;;;;;;6.47;5.83;;;7.50;62.50;;;;;;5045354;28;20216;-68
2024/02/02 08:55:40;;;;;;;6.67;6.07;;;7.50;61.90;;;;;;5051206;28;20631;-69
2024/02/02 08:58:07;;;;;;;6.77;6.17;;;7.60;62.10;;;;;;5031136;28;20308;-68
2024/02/02 09:00:33;;;;;;;6.50;5.90;;;7.60;61.70;;;;;;5043827;28;20267;-68
2024/02/02 09:03:00;;;;;;;6.83;6.17;;;7.60;62.00;;;;;;5036924;28;20234;-68
2024/02/02 09:05:27;;;;;;;6.50;5.90;;;7.60;61.70;;;;;;5019742;28;20210;-68
2024/02/02 09:07:54;;;;;;;7.87;5.97;;;7.60;62.10;;;;;;5011916;28;20206;-68
2024/02/02 09:10:21;;;;;;;6.73;5.97;;;7.60;62.60;;;;;;5019509;28;20350;-68
2024/02/02 09:12:47;;;;;;;6.97;6.20;;;7.60;62.00;;;;;;5008018;28;22629;-68
2024/02/02 09:15:14;;;;;;;5.70;5.20;;;7.70;61.40;;;;;;5023452;28;20263;-68
2024/02/02 09:17:40;;;;;;;8.23;5.70;;;7.80;61.50;;;;;;5032632;28;20735;-67
2024/02/02 09:20:07;;;;;;;8.33;5.47;;;7.90;61.10;;;;;;5024942;28;20214;-67
2024/02/02 09:22:33;;;;;;;7.07;5.60;;;7.90;60.60;;;;;;5014709;28;20787;-65
2024/02/02 09:25:00;;;;;;;6.07;5.47;;;8.00;60.90;;;;;;5026355;28;20232;-68
2024/02/02 09:27:26;;;;;;;5.97;5.37;;;8.10;60.50;;;;;;5025299;28;20256;-68
2024/02/02 09:29:53;;;;;;;7.87;6.10;;;8.10;60.00;;;;;;5023027;28;20218;-68
2024/02/02 09:32:19;;;;;;;5.40;4.73;;;8.00;60.50;;;;;;5010721;28;20234;-68
2024/02/02 09:34:46;;;;;;;5.87;5.27;;;8.10;61.00;;;;;;5019411;28;20265;-68
2024/02/02 09:37:13;;;;;;;7.60;5.67;;;8.10;60.10;;;;;;5020015;28;20205;-68
2024/02/02 09:39:39;;;;;;;6.67;5.33;;;8.00;60.70;;;;;;5013956;28;20385;-66
2024/02/02 09:42:06;;;;;;;5.23;4.73;;;8.00;60.20;;;;;;5023544;28;20292;-67
2024/02/02 09:44:33;;;;;;;9.00;5.50;;;8.00;59.90;;;;;;5022040;28;20217;-66
2024/02/02 09:47:00;;;;;;;6.00;5.33;;;7.90;60.70;;;;;;5032418;28;20210;-66
2024/02/02 09:49:27;;;;;;;5.50;5.00;;;8.00;61.00;;;;;;5032139;28;20256;-67
2024/02/02 09:51:53;;;;;;;5.80;5.23;;;8.00;60.90;;;;;;5024082;28;20683;-67
2024/02/02 09:54:20;;;;;;;5.73;5.23;;;8.00;61.40;;;;;;5032201;28;20633;-67
2024/02/02 09:56:46;;;;;;;6.87;5.23;;;8.00;61.50;;;;;;5028261;28;20268;-67
2024/02/02 09:59:13;;;;;;;5.67;5.17;;;8.10;62.20;;;;;;5031955;28;20236;-67
2024/02/02 10:01:39;;;;;;;5.83;5.23;;;8.20;60.90;;;;;;5024907;28;20249;-67
2024/02/02 10:04:06;;;;;;;5.77;5.27;;;8.30;61.00;;;;;;5027264;28;20206;-67
2024/02/02 10:06:33;;;;;;;5.90;5.30;;;8.30;61.10;;;;;;5032102;28;20214;-67
2024/02/02 10:08:59;;;;;;;6.70;6.00;;;8.50;61.40;;;;;;5032202;28;20256;-67
2024/02/02 10:11:26;;;;;;;6.07;5.57;;;8.40;61.70;;;;;;5031702;28;20234;-67
2024/02/02 10:13:52;;;;;;;6.43;5.83;;;8.40;62.00;;;;;;5027350;28;20218;-67
2024/02/02 10:16:19;;;;;;;5.60;5.10;;;8.30;62.80;;;;;;5031828;28;20260;-67
2024/02/02 10:18:45;;;;;;;6.20;5.60;;;8.30;63.20;;;;;;5019927;28;20233;-66
2024/02/02 10:21:12;;;;;;;5.83;5.27;;;8.30;63.60;;;;;;5018999;28;20226;-67
2024/02/02 10:23:39;;;;;;;6.73;6.13;;;8.30;63.50;;;;;;4993837;28;20233;-67
2024/02/02 10:26:05;;;;;;;6.80;5.77;;;8.20;63.80;;;;;;5021582;28;20199;-67
2024/02/02 10:28:32;;;;;;;6.17;5.60;;;8.10;63.90;;;;;;5022205;28;20284;-66
2024/02/02 10:30:59;;;;;;;6.37;5.77;;;8.00;62.80;;;;;;5019105;28;20199;-67
2024/02/02 10:33:24;;;;;;;5.60;5.10;;;8.10;63.10;;;;;;5018763;28;20252;-67
2024/02/02 10:35:51;;;;;;;5.67;5.17;;;8.10;63.10;;;;;;5026690;28;20206;-67
2024/02/02 10:38:18;;;;;;;5.60;5.10;;;8.10;63.40;;;;;;5024458;28;20267;-67
2024/02/02 10:40:44;;;;;;;5.33;4.83;;;8.10;62.90;;;;;;5023793;28;20264;-67
2024/02/02 10:43:11;;;;;;;5.70;4.63;;;8.10;63.00;;;;;;5004620;28;20202;-66
2024/02/02 10:45:37;;;;;;;5.20;4.60;;;8.10;61.80;;;;;;5017813;28;20202;-66
2024/02/02 10:48:04;;;;;;;5.20;4.70;;;8.10;62.00;;;;;;5020827;28;20255;-67
2024/02/02 10:50:30;;;;;;;5.83;4.37;;;8.10;62.40;;;;;;5028047;28;20215;-66
2024/02/02 10:52:57;;;;;;;4.53;4.03;;;8.20;61.90;;;;;;5029574;28;20287;-67
2024/02/02 10:55:24;;;;;;;4.50;4.10;;;8.10;61.20;;;;;;5013759;28;20213;-67
2024/02/02 10:57:51;;;;;;;6.27;4.30;;;8.20;61.60;;;;;;5030396;28;20248;-67
2024/02/02 11:00:18;;;;;;;4.67;4.27;;;8.20;61.10;;;;;;5017028;28;20288;-66
2024/02/02 11:02:44;;;;;;;5.13;4.63;;;8.20;61.20;;;;;;5016395;28;20297;-67
2024/02/02 11:05:11;;;;;;;5.20;4.70;;;8.10;61.10;;;;;;5012813;28;20206;-66
2024/02/02 11:07:37;;;;;;;5.60;5.10;;;8.10;61.60;;;;;;5040348;28;20754;-66
2024/02/02 11:10:04;;;;;;;5.57;5.03;;;8.10;61.80;;;;;;5039040;28;20205;-66
2024/02/02 11:12:30;;;;;;;5.03;4.60;;;8.00;61.50;;;;;;5029278;28;20241;-66
2024/02/02 11:14:57;;;;;;;4.97;4.50;;;8.00;62.80;;;;;;5030898;28;20206;-66
2024/02/02 11:17:24;;;;;;;4.93;4.50;;;8.10;62.90;;;;;;5022771;28;20275;-67
2024/02/02 11:19:50;;;;;;;5.77;4.60;;;8.10;61.80;;;;;;5026332;28;20629;-66
2024/02/02 11:22:17;;;;;;;5.23;4.73;;;8.10;61.80;;;;;;5020575;28;20723;-66
2024/02/02 11:24:49;;;;;;;5.10;4.60;;;8.00;61.80;;;;;;5033771;28;20631;-67
2024/02/02 11:27:15;;;;;;;4.40;4.00;;;8.10;62.80;;;;;;5024227;28;20218;-68
2024/02/02 11:29:42;;;;;;;4.27;3.87;;;8.10;62.90;;;;;;5022773;28;20239;-67
2024/02/02 11:32:09;;;;;;;4.77;4.27;;;8.00;62.60;;;;;;5026136;28;20649;-67
2024/02/02 11:34:35;;;;;;;5.00;4.50;;;8.10;63.20;;;;;;5023103;28;20727;-67
2024/02/02 11:37:02;;;;;;;4.73;4.23;;;8.10;63.30;;;;;;5024700;28;20210;-68
2024/02/02 11:39:28;;;;;;;5.10;4.60;;;8.10;63.30;;;;;;5027840;28;20345;-67
2024/02/02 11:41:55;;;;;;;4.83;3.80;;;8.00;63.30;;;;;;5028664;28;20226;-67
2024/02/02 11:44:21;;;;;;;4.63;4.23;;;8.00;63.70;;;;;;5027023;28;20214;-66
2024/02/02 11:46:48;;;;;;;4.47;4.07;;;7.90;63.40;;;;;;5023146;28;20301;-66
2024/02/02 11:49:14;;;;;;;5.20;4.17;;;7.90;63.30;;;;;;5028169;28;20226;-67
2024/02/02 11:51:46;;;;;;;4.50;4.10;;;8.10;62.90;;;;;;5029067;28;20296;-65
2024/02/02 11:54:12;;;;;;;5.00;3.83;;;8.10;61.90;;;;;;5026569;28;20206;-66
2024/02/02 11:56:39;;;;;;;4.00;3.60;;;8.30;62.10;;;;;;5011716;28;20440;-66
2024/02/02 11:59:06;;;;;;;4.20;3.80;;;8.30;61.70;;;;;;5023060;28;20611;-67
2024/02/02 12:01:32;;;;;;;4.57;3.83;;;8.30;61.90;;;;;;5029291;28;20226;-67
2024/02/02 12:03:59;;;;;;;4.10;3.70;;;8.50;62.10;;;;;;5034383;28;20218;-67
2024/02/02 12:06:26;;;;;;;3.53;3.23;;;8.30;61.90;;;;;;5031838;28;20205;-67
2024/02/02 12:08:52;;;;;;;3.80;3.50;;;8.40;61.20;;;;;;5033895;28;20736;-66
2024/02/02 12:11:19;;;;;;;3.73;3.43;;;8.40;61.20;;;;;;5031426;28;20275;-66
2024/02/02 12:13:45;;;;;;;3.50;3.20;;;8.40;61.30;;;;;;5026843;28;20203;-66
2024/02/02 12:16:12;;;;;;;3.73;3.43;;;8.40;60.40;;;;;;5028774;28;20260;-66
2024/02/02 12:18:39;;;;;;;5.40;3.70;;;8.50;60.70;;;;;;5033508;28;20577;-66
2024/02/02 12:21:12;;;;;;;3.60;3.30;;;8.50;59.60;;;;;;5031661;28;20233;-66
2024/02/02 12:23:39;;;;;;;3.60;3.30;;;8.50;59.70;;;;;;5028688;28;20290;-66
2024/02/02 12:26:06;;;;;;;3.80;3.50;;;8.50;60.10;;;;;;5035539;28;20231;-66
2024/02/02 12:28:33;;;;;;;3.37;3.07;;;8.60;59.50;;;;;;5028864;28;20294;-66
2024/02/02 12:31:00;;;;;;;3.57;3.27;;;8.60;59.60;;;;;;5032529;28;20210;-67
2024/02/02 12:33:26;;;;;;;3.53;3.23;;;8.60;59.60;;;;;;5029487;28;20202;-66
2024/02/02 12:35:53;;;;;;;3.57;3.27;;;8.50;59.70;;;;;;5031850;28;20206;-66
2024/02/02 12:38:19;;;;;;;3.90;3.47;;;8.60;59.90;;;;;;5025445;28;20211;-66
2024/02/02 12:40:46;;;;;;;5.70;5.10;;;8.70;59.30;;;;;;5025596;28;20203;-70